Time;durP1;ratioP1;P1;durP2;ratioP2;P2;SDS_P1;SDS_P2;PMS_P1;PMS_P2;Temp;Humidity;BMP_temperature;BMP_pressure;BME280_temperature;BME280_humidity;BME280_pressure;Samples;Min_cycle;Max_cycle;Signal;HPM_P1;HPM_P2
2023/09/15 00:00:23;;;;;;;17.20;11.20;;;;;;;13.31;100.00;101811.47;5078984;28;20062;-82
2023/09/15 00:02:49;;;;;;;15.52;10.43;;;;;;;13.26;100.00;101812.13;5098527;28;20105;-82
2023/09/15 00:05:15;;;;;;;18.70;11.95;;;;;;;13.25;100.00;101812.31;5079037;28;20514;-82
2023/09/15 00:07:41;;;;;;;16.15;11.18;;;;;;;13.22;100.00;101810.03;5079073;28;20031;-82
2023/09/15 00:10:11;;;;;;;17.47;11.70;;;;;;;13.19;100.00;101805.81;5095981;28;20038;-82
2023/09/15 00:12:40;;;;;;;16.50;11.63;;;;;;;13.16;100.00;101809.78;5079894;28;20024;-82
2023/09/15 00:15:07;;;;;;;19.10;11.50;;;;;;;13.13;100.00;101804.78;5113936;28;20111;-82
2023/09/15 00:17:38;;;;;;;16.65;11.60;;;;;;;13.12;100.00;101807.69;5079653;28;20051;-82
2023/09/15 00:20:13;;;;;;;16.48;11.63;;;;;;;13.12;100.00;101803.13;5079331;28;20054;-82
2023/09/15 00:22:50;;;;;;;20.10;13.27;;;;;;;13.10;100.00;101802.47;5095715;28;20031;-82
2023/09/15 00:25:19;;;;;;;18.52;12.40;;;;;;;13.10;100.00;101797.00;5095590;28;20081;-82
2023/09/15 00:27:52;;;;;;;18.80;11.75;;;;;;;13.07;100.00;101796.59;5095909;28;20060;-82
2023/09/15 00:30:20;;;;;;;19.35;12.80;;;;;;;13.07;100.00;101794.72;5095419;28;20030;-82
2023/09/15 00:32:47;;;;;;;18.83;12.77;;;;;;;13.04;100.00;101797.03;5095600;28;20027;-83
2023/09/15 00:35:16;;;;;;;19.63;12.23;;;;;;;13.03;100.00;101796.16;5063025;28;20051;-82
2023/09/15 00:37:42;;;;;;;17.23;12.85;;;;;;;12.98;100.00;101796.78;5079474;28;20039;-82
2023/09/15 00:40:09;;;;;;;16.85;12.68;;;;;;;12.96;100.00;101793.47;5078980;28;20034;-81
2023/09/15 00:42:34;;;;;;;18.88;13.55;;;;;;;12.96;100.00;101789.88;5079282;28;20032;-82
2023/09/15 00:45:05;;;;;;;18.20;12.17;;;;;;;12.91;100.00;101790.50;5078387;28;20498;-82
2023/09/15 00:47:33;;;;;;;18.15;12.38;;;;;;;12.87;100.00;101788.41;5113771;28;20032;-82
2023/09/15 00:49:59;;;;;;;17.98;12.55;;;;;;;12.86;100.00;101786.72;5113367;28;20498;-82
2023/09/15 00:52:25;;;;;;;15.80;11.73;;;;;;;12.81;100.00;101785.47;5115142;28;20027;-82
2023/09/15 00:54:51;;;;;;;16.95;12.48;;;;;;;12.78;100.00;101780.44;5098972;28;20035;-82
2023/09/15 00:57:16;;;;;;;15.63;12.10;;;;;;;12.75;100.00;101782.72;5099214;28;20383;-82
2023/09/15 00:59:42;;;;;;;15.82;12.32;;;;;;;12.73;100.00;101785.66;5065653;28;20031;-83
2023/09/15 01:02:08;;;;;;;16.57;11.83;;;;;;;12.73;100.00;101788.38;5066455;28;20089;-82
2023/09/15 01:04:33;;;;;;;16.55;11.52;;;;;;;12.67;100.00;101782.91;5099457;28;20047;-82
2023/09/15 01:07:01;;;;;;;18.27;12.03;;;;;;;12.65;100.00;101777.69;5099034;28;20034;-82
2023/09/15 01:09:27;;;;;;;17.65;12.20;;;;;;;12.61;100.00;101777.28;5082611;28;20039;-82
2023/09/15 01:11:52;;;;;;;16.20;11.73;;;;;;;12.57;100.00;101778.72;5098868;28;20034;-82
2023/09/15 01:14:18;;;;;;;20.27;12.27;;;;;;;12.57;100.00;101775.16;5117137;28;20036;-82
2023/09/15 01:16:55;;;;;;;17.53;12.00;;;;;;;12.53;100.00;101777.44;5081853;28;20691;-82
2023/09/15 01:19:54;;;;;;;17.27;11.85;;;;;;;12.51;100.00;101774.09;5117083;28;20027;-82
2023/09/15 01:22:25;;;;;;;15.93;11.98;;;;;;;12.45;100.00;101774.94;5098085;28;20032;-82
2023/09/15 01:25:09;;;;;;;16.90;12.97;;;;;;;12.43;100.00;101766.97;5098487;28;20044;-82
2023/09/15 01:27:47;;;;;;;17.58;12.52;;;;;;;12.39;100.00;101770.31;5098519;28;20081;-82
2023/09/15 01:30:13;;;;;;;19.83;12.90;;;;;;;12.36;100.00;101765.28;5098127;28;20042;-82
2023/09/15 01:32:41;;;;;;;17.20;13.50;;;;;;;12.32;100.00;101773.00;5081327;28;20042;-82
2023/09/15 01:35:07;;;;;;;17.58;12.77;;;;;;;12.26;100.00;101766.47;5082383;28;20409;-82
2023/09/15 01:37:32;;;;;;;18.43;13.47;;;;;;;12.22;100.00;101762.53;5116670;28;20110;-82
2023/09/15 01:39:59;;;;;;;18.80;13.17;;;;;;;12.20;100.00;101761.03;5081465;28;20532;-81
2023/09/15 01:42:25;;;;;;;18.58;13.43;;;;;;;12.16;100.00;101759.75;5081517;28;20031;-82
2023/09/15 01:44:50;;;;;;;17.40;13.63;;;;;;;12.15;100.00;101763.50;5081187;28;20468;-82
2023/09/15 01:47:19;;;;;;;17.97;13.57;;;;;;;12.11;100.00;101753.03;5116154;28;20034;-82
2023/09/15 01:49:45;;;;;;;18.42;12.93;;;;;;;12.07;100.00;101759.94;5098187;28;20027;-82
2023/09/15 01:52:12;;;;;;;18.88;13.32;;;;;;;12.05;100.00;101755.75;5097822;28;20035;-82
2023/09/15 01:54:38;;;;;;;17.40;13.57;;;;;;;12.03;100.00;101755.09;5098393;28;20051;-82
2023/09/15 01:57:03;;;;;;;16.27;13.05;;;;;;;12.00;100.00;101753.66;5081107;28;20463;-82
2023/09/15 01:59:29;;;;;;;19.43;13.70;;;;;;;11.96;100.00;101748.78;5081136;28;20077;-82
2023/09/15 02:01:54;;;;;;;18.88;13.45;;;;;;;11.93;100.00;101748.16;5098380;28;20039;-82
2023/09/15 02:04:20;;;;;;;20.33;13.67;;;;;;;11.88;100.00;101755.22;5097314;28;20102;-82
2023/09/15 02:06:45;;;;;;;22.10;14.93;;;;;;;11.84;100.00;101749.34;5116632;28;20043;-82
2023/09/15 02:09:14;;;;;;;20.27;14.00;;;;;;;11.80;100.00;101753.50;5097888;28;20480;-86
2023/09/15 02:11:42;;;;;;;19.48;13.68;;;;;;;11.74;100.00;101752.44;5080360;28;20043;-87
2023/09/15 02:14:08;;;;;;;20.35;13.75;;;;;;;11.69;100.00;101752.22;5097471;28;20063;-87
2023/09/15 02:16:36;;;;;;;18.97;14.53;;;;;;;11.70;100.00;101750.31;5081274;28;20062;-87
2023/09/15 02:19:07;;;;;;;24.48;14.48;;;;;;;11.66;100.00;101738.16;5080949;28;20028;-86
2023/09/15 02:24:54;;;;;;;20.80;13.98;;;;;;;11.62;100.00;101734.16;5115873;28;20078;-86
2023/09/15 02:31:23;;;;;;;18.30;14.18;;;;;;;11.64;100.00;101743.81;5115791;28;20391;-87
2023/09/15 02:37:20;;;;;;;20.80;14.00;;;;;;;11.57;100.00;101741.06;5115211;28;20445;-87
2023/09/15 02:39:45;;;;;;;18.77;14.13;;;;;;;11.51;100.00;101728.25;5096955;28;20089;-87
2023/09/15 02:42:12;;;;;;;21.35;14.00;;;;;;;11.41;100.00;101723.19;5097468;28;20406;-87
2023/09/15 02:44:37;;;;;;;21.10;13.97;;;;;;;11.43;100.00;101730.28;5080302;28;20027;-87
2023/09/15 02:47:03;;;;;;;20.85;14.23;;;;;;;11.40;100.00;101726.09;5115085;28;20088;-87
2023/09/15 02:49:28;;;;;;;19.33;14.10;;;;;;;11.34;100.00;101722.31;5097348;28;20463;-87
2023/09/15 02:51:55;;;;;;;20.60;13.40;;;;;;;11.35;100.00;101736.72;5097484;28;20363;-87
2023/09/15 02:54:20;;;;;;;19.77;13.77;;;;;;;11.32;100.00;101732.50;5096679;28;20433;-87
2023/09/15 02:56:46;;;;;;;20.70;14.47;;;;;;;11.33;100.00;101731.50;5097071;28;20012;-87
2023/09/15 02:59:11;;;;;;;20.95;13.60;;;;;;;11.26;100.00;101727.88;5097485;28;20035;-87
2023/09/15 03:01:37;;;;;;;18.00;13.53;;;;;;;11.29;100.00;101734.81;5096856;28;20047;-87
2023/09/15 03:04:03;;;;;;;19.27;13.93;;;;;;;11.17;100.00;101729.06;5114697;28;20023;-87
2023/09/15 03:06:29;;;;;;;19.10;13.65;;;;;;;11.13;100.00;101722.34;5079760;28;20118;-87
2023/09/15 03:08:54;;;;;;;19.87;13.33;;;;;;;11.12;100.00;101716.09;5096297;28;20051;-87
2023/09/15 03:11:21;;;;;;;20.13;13.88;;;;;;;11.11;100.00;101714.41;5096599;28;20035;-87
2023/09/15 03:13:47;;;;;;;21.90;13.80;;;;;;;11.08;100.00;101720.22;5114781;28;20047;-87
2023/09/15 03:16:15;;;;;;;20.67;14.02;;;;;;;11.12;100.00;101731.56;5096379;28;20027;-87
2023/09/15 03:18:42;;;;;;;20.92;14.77;;;;;;;11.04;100.00;101722.53;5096091;28;20023;-87
2023/09/15 03:21:08;;;;;;;18.50;13.50;;;;;;;11.03;100.00;101717.28;5096146;28;20031;-87
2023/09/15 03:23:36;;;;;;;19.83;14.68;;;;;;;11.06;100.00;101731.28;5096085;28;20031;-87
2023/09/15 03:26:07;;;;;;;19.25;13.95;;;;;;;11.00;100.00;101706.81;5114886;28;20047;-87
2023/09/15 03:28:35;;;;;;;21.63;14.10;;;;;;;11.01;100.00;101712.06;5096588;28;20034;-88
2023/09/15 03:31:03;;;;;;;21.00;13.90;;;;;;;10.93;100.00;101714.06;5115132;28;20031;-87
2023/09/15 03:33:30;;;;;;;19.70;14.47;;;;;;;10.98;100.00;101717.84;5095855;28;20114;-87
2023/09/15 03:35:58;;;;;;;17.05;13.00;;;;;;;10.97;100.00;101713.47;5096170;28;20133;-87
2023/09/15 03:38:24;;;;;;;20.95;13.75;;;;;;;10.91;100.00;101700.69;5096371;28;20118;-87
2023/09/15 03:40:49;;;;;;;18.43;14.03;;;;;;;10.97;100.00;101716.19;5095908;28;20110;-87
2023/09/15 03:43:15;;;;;;;23.60;15.25;;;;;;;10.93;100.00;101706.75;5095734;28;20036;-87
2023/09/15 03:45:44;;;;;;;20.90;14.90;;;;;;;11.00;100.00;101707.66;5095999;28;20027;-87
2023/09/15 03:48:09;;;;;;;21.42;14.23;;;;;;;10.93;100.00;101704.03;5114519;28;20016;-87
2023/09/15 03:50:37;;;;;;;20.37;14.10;;;;;;;10.93;100.00;101701.31;5095642;28;20528;-87
2023/09/15 03:53:08;;;;;;;17.50;13.40;;;;;;;10.87;100.00;101702.94;5114479;28;20340;-87
2023/09/15 03:59:21;;;;;;;18.88;13.82;;;;;;;10.93;100.00;101716.78;5113141;28;20070;-87
2023/09/15 04:15:30;;;;;;;20.40;13.93;;;;;;;10.70;100.00;101704.25;5111979;28;20118;-86
2023/09/15 04:17:56;;;;;;;18.45;13.77;;;;;;;10.64;100.00;101697.72;5096412;28;20379;-86
2023/09/15 04:20:21;;;;;;;18.60;13.30;;;;;;;10.66;100.00;101689.41;5114067;28;20027;-86
2023/09/15 04:22:49;;;;;;;18.17;13.53;;;;;;;10.64;100.00;101694.19;5095926;28;20043;-86
2023/09/15 04:28:39;;;;;;;23.17;13.25;;;;;;;10.66;100.00;101692.13;5117575;28;20524;-87
2023/09/15 04:31:12;;;;;;;21.63;13.50;;;;;;;10.60;100.00;101684.75;5082962;28;20047;-86
2023/09/15 04:37:04;;;;;;;18.23;13.23;;;;;;;10.59;100.00;101700.22;5117602;28;20035;-87
2023/09/15 04:42:55;;;;;;;20.35;13.25;;;;;;;10.51;100.00;101693.03;5117741;28;20078;-86
2023/09/15 04:45:21;;;;;;;18.40;13.02;;;;;;;10.47;100.00;101693.63;5082133;28;20056;-87
2023/09/15 04:47:46;;;;;;;20.40;13.30;;;;;;;10.44;100.00;101692.13;5099216;28;20071;-87
2023/09/15 04:50:12;;;;;;;19.30;13.90;;;;;;;10.46;100.00;101692.78;5100084;28;20061;-87
2023/09/15 04:56:05;;;;;;;16.38;12.88;;;;;;;10.40;100.00;101707.13;5117571;28;20034;-87
2023/09/15 05:02:09;;;;;;;20.60;13.57;;;;;;;10.34;100.00;101706.00;5117232;28;20080;-87
2023/09/15 05:07:57;;;;;;;20.40;12.85;;;;;;;10.27;100.00;101698.81;5117248;28;20046;-87
2023/09/15 05:13:45;;;;;;;20.35;13.55;;;;;;;10.28;100.00;101717.59;5120496;28;20045;-87
2023/09/15 05:16:13;;;;;;;22.47;13.37;;;;;;;10.25;100.00;101709.84;5064861;28;20430;-87
2023/09/15 05:18:38;;;;;;;18.95;12.80;;;;;;;10.22;100.00;101707.53;5099577;28;20039;-86
2023/09/15 05:21:36;;;;;;;24.73;14.73;;;;;;;10.28;100.00;101717.59;5099347;28;20035;-87
2023/09/15 05:31:39;;;;;;;26.00;13.20;;;;;;;10.31;100.00;101708.25;5116560;28;20092;-87
2023/09/15 05:37:30;;;;;;;17.92;12.63;;;;;;;10.47;100.00;101713.44;5116435;28;20445;-87
2023/09/15 05:43:18;;;;;;;19.42;12.63;;;;;;;10.60;100.00;101720.03;5116685;28;20498;-90
2023/09/15 05:45:44;;;;;;;18.13;12.63;;;;;;;10.64;100.00;101716.72;5081223;28;20468;-90
2023/09/15 05:48:12;;;;;;;18.98;12.70;;;;;;;10.70;100.00;101717.81;5098802;28;20526;-91
2023/09/15 05:50:38;;;;;;;21.00;12.35;;;;;;;10.69;100.00;101714.28;5098760;28;20160;-94
2023/09/15 05:53:04;;;;;;;17.17;11.97;;;;;;;10.77;100.00;101712.47;5116930;28;20471;-93
2023/09/15 05:55:29;;;;;;;19.30;11.85;;;;;;;10.84;100.00;101722.34;5116809;28;20107;-92
2023/09/15 05:57:55;;;;;;;16.20;11.43;;;;;;;10.92;100.00;101721.34;5117413;28;20038;-91
2023/09/15 06:00:21;;;;;;;19.75;12.27;;;;;;;10.97;100.00;101720.75;5081285;28;20479;-89
2023/09/15 06:02:47;;;;;;;16.98;11.02;;;;;;;10.99;100.00;101711.41;5119468;28;20027;-91
2023/09/15 06:05:13;;;;;;;19.23;11.30;;;;;;;11.00;100.00;101702.22;5098520;28;20026;-92
2023/09/15 06:07:39;;;;;;;16.38;10.52;;;;;;;11.17;100.00;101723.66;5098905;28;20030;-92
2023/09/15 06:10:08;;;;;;;16.40;11.30;;;;;;;11.21;100.00;101723.03;5116735;28;20041;-92
2023/09/15 06:12:36;;;;;;;18.20;10.95;;;;;;;11.24;100.00;101717.22;5081685;28;20035;-92
2023/09/15 06:15:02;;;;;;;16.38;10.95;;;;;;;11.29;100.00;101711.19;5116497;28;20031;-91
2023/09/15 06:17:30;;;;;;;14.07;10.80;;;;;;;11.37;100.00;101719.19;5097971;28;20387;-93
2023/09/15 06:19:55;;;;;;;14.57;10.93;;;;;;;11.39;100.00;101706.22;5099045;28;20450;-93
2023/09/15 06:22:23;;;;;;;13.57;9.83;;;;;;;11.45;100.00;101707.31;5099448;28;20219;-94
2023/09/15 06:24:48;;;;;;;15.00;10.82;;;;;;;11.54;100.00;101716.16;5112472;28;20447;-92
2023/09/15 06:27:14;;;;;;;16.93;9.63;;;;;;;11.64;100.00;101715.78;5111476;28;20142;-93
2023/09/15 06:29:39;;;;;;;13.75;10.02;;;;;;;11.67;100.00;101718.94;5099383;28;20027;-92
2023/09/15 06:32:07;;;;;;;15.73;9.53;;;;;;;11.75;100.00;101715.19;5099830;28;20067;-93
2023/09/15 06:34:32;;;;;;;17.55;9.88;;;;;;;11.82;100.00;101710.63;5099618;28;20540;-92
2023/09/15 06:36:58;;;;;;;12.70;9.37;;;;;;;11.84;100.00;101711.28;5104081;28;20059;-92
2023/09/15 06:39:24;;;;;;;13.27;9.73;;;;;;;11.97;100.00;101712.41;5110712;28;20039;-92
2023/09/15 06:41:50;;;;;;;13.57;9.15;;;;;;;12.04;100.00;101708.66;5131645;28;20024;-94
2023/09/15 06:44:16;;;;;;;12.05;9.02;;;;;;;12.13;100.00;101709.31;5118765;28;20050;-94
2023/09/15 06:46:41;;;;;;;15.80;9.37;;;;;;;12.15;100.00;101699.09;5092569;28;20036;-92
2023/09/15 06:49:08;;;;;;;13.40;9.10;;;;;;;12.21;100.00;101703.69;5113945;28;20020;-93
2023/09/15 06:51:33;;;;;;;13.57;9.10;;;;;;;12.28;100.00;101707.28;5118390;28;20106;-92
2023/09/15 06:53:59;;;;;;;13.10;8.70;;;;;;;12.30;100.00;101701.63;5116078;28;20084;-91
2023/09/15 06:56:28;;;;;;;12.95;8.35;;;;;;;12.37;100.00;101697.03;5116474;28;20049;-92
2023/09/15 06:58:54;;;;;;;14.47;8.80;;;;;;;12.42;100.00;101688.25;5105604;28;20451;-93
2023/09/15 07:01:19;;;;;;;13.32;9.07;;;;;;;12.48;100.00;101700.19;5108644;28;20034;-92
2023/09/15 07:03:45;;;;;;;13.10;7.90;;;;;;;12.51;100.00;101692.44;5109709;28;20039;-94
2023/09/15 07:06:10;;;;;;;17.13;9.07;;;;;;;12.60;100.00;101698.53;5132331;28;20087;-93
2023/09/15 07:08:43;;;;;;;10.63;8.17;;;;;;;12.71;100.00;101710.66;5125841;28;20443;-94
2023/09/15 07:11:09;;;;;;;14.30;8.15;;;;;;;12.74;100.00;101708.38;5099026;28;20030;-93
2023/09/15 07:13:35;;;;;;;11.40;7.93;;;;;;;12.79;100.00;101692.25;5081051;28;20114;-93
2023/09/15 07:16:00;;;;;;;11.63;8.27;;;;;;;12.87;100.00;101695.81;5097415;28;20031;-93
2023/09/15 07:18:26;;;;;;;15.00;8.20;;;;;;;12.91;100.00;101684.28;5116780;28;20028;-93
2023/09/15 07:20:56;;;;;;;16.83;8.70;;;;;;;13.03;100.00;101698.09;5097749;28;20031;-93
2023/09/15 07:23:26;;;;;;;10.77;7.80;;;;;;;13.11;100.00;101688.84;5098601;28;20034;-93
2023/09/15 07:25:52;;;;;;;11.25;8.38;;;;;;;13.20;100.00;101689.47;5100637;28;20089;-93
2023/09/15 07:28:17;;;;;;;12.07;7.33;;;;;;;13.23;100.00;101679.00;5097105;28;20467;-93
2023/09/15 07:30:43;;;;;;;16.73;10.00;;;;;;;13.34;100.00;101683.00;5097804;28;20040;-93
2023/09/15 07:33:10;;;;;;;14.77;8.93;;;;;;;13.38;100.00;101673.34;5123360;28;20288;-93
2023/09/15 07:35:36;;;;;;;13.60;7.82;;;;;;;13.51;100.00;101686.94;5080679;28;20036;-93
2023/09/15 07:38:03;;;;;;;9.97;7.20;;;;;;;13.58;100.00;101677.88;5080340;28;20483;-93
2023/09/15 07:40:29;;;;;;;12.68;7.45;;;;;;;13.63;100.00;101676.19;5080322;28;20031;-92
2023/09/15 07:42:54;;;;;;;11.03;7.30;;;;;;;13.71;100.00;101672.38;5097431;28;20602;-94
2023/09/15 07:45:20;;;;;;;10.43;7.43;;;;;;;13.83;100.00;101672.53;5115360;28;20283;-94
2023/09/15 07:47:46;;;;;;;10.53;7.20;;;;;;;13.87;100.00;101662.88;5098458;28;20027;-94
2023/09/15 07:50:13;;;;;;;10.40;7.20;;;;;;;14.00;100.00;101679.16;5097255;28;20106;-94
2023/09/15 07:52:39;;;;;;;9.37;6.90;;;;;;;14.08;100.00;101677.25;5080154;28;20028;-94
2023/09/15 07:55:05;;;;;;;11.02;7.43;;;;;;;14.15;100.00;101673.41;5096660;28;20050;-94
2023/09/15 07:57:32;;;;;;;9.38;6.90;;;;;;;14.17;100.00;101667.72;5097355;28;20460;-95
2023/09/15 07:59:58;;;;;;;14.10;7.00;;;;;;;14.27;100.00;101672.72;5080296;28;20040;-94
2023/09/15 08:02:32;;;;;;;13.68;7.25;;;;;;;14.31;100.00;101676.69;5095938;28;20475;-94
2023/09/15 08:04:57;;;;;;;13.77;6.70;;;;;;;14.43;100.00;101674.09;5096696;28;20031;-94
2023/09/15 08:07:25;;;;;;;7.97;6.40;;;;;;;14.51;100.00;101673.81;5114675;28;20482;-94
2023/09/15 08:09:52;;;;;;;9.43;6.55;;;;;;;14.53;100.00;101658.06;5114851;28;20421;-94
2023/09/15 08:12:19;;;;;;;12.20;6.87;;;;;;;14.61;100.00;101665.13;5096668;28;20027;-93
2023/09/15 08:14:45;;;;;;;10.23;6.60;;;;;;;14.65;100.00;101664.50;5096493;28;20486;-93
2023/09/15 08:17:14;;;;;;;9.23;7.07;;;;;;;14.72;100.00;101656.25;5079913;28;20027;-92
2023/09/15 08:19:39;;;;;;;14.57;6.97;;;;;;;14.78;100.00;101659.97;5113862;28;20031;-92
2023/09/15 08:22:05;;;;;;;10.23;6.23;;;;;;;14.88;100.00;101668.47;5095901;28;20053;-92
2023/09/15 08:24:31;;;;;;;12.33;6.60;;;;;;;14.88;100.00;101661.16;5114439;28;20519;-92
2023/09/15 08:26:56;;;;;;;9.23;6.50;;;;;;;14.93;100.00;101663.19;5095448;28;20048;-92
2023/09/15 08:29:22;;;;;;;12.47;5.80;;;;;;;15.03;100.00;101670.91;5096269;28;20036;-92
2023/09/15 08:31:47;;;;;;;10.23;6.10;;;;;;;15.13;100.00;101667.63;5079406;28;20138;-92
2023/09/15 08:34:16;;;;;;;12.10;6.00;;;;;;;15.16;100.00;101665.28;5096462;28;20118;-92
2023/09/15 08:36:42;;;;;;;10.73;5.67;;;;;;;15.25;100.00;101666.66;5096355;28;20032;-92
2023/09/15 08:39:08;;;;;;;9.63;5.95;;;;;;;15.35;100.00;101663.38;5096006;28;20024;-91
2023/09/15 08:41:43;;;;;;;8.40;5.82;;;;;;;15.45;100.00;101662.84;5096679;28;20043;-92
2023/09/15 08:44:11;;;;;;;11.75;5.50;;;;;;;15.51;100.00;101667.41;5116272;28;20031;-92
2023/09/15 08:46:41;;;;;;;8.23;5.35;;;;;;;15.55;100.00;101657.69;5118104;28;20091;-92
2023/09/15 08:49:08;;;;;;;10.43;5.80;;;;;;;15.59;100.00;101641.69;5097653;28;20356;-91
2023/09/15 08:51:34;;;;;;;11.85;5.40;;;;;;;15.67;100.00;101649.56;5098053;28;20067;-92
2023/09/15 08:54:01;;;;;;;10.30;5.50;;;;;;;15.72;100.00;101649.72;5118538;28;20036;-92
2023/09/15 08:56:27;;;;;;;10.18;4.90;;;;;;;15.87;100.00;101645.75;5087014;28;20069;-91
2023/09/15 08:58:56;;;;;;;9.63;5.40;;;;;;;15.90;100.00;101640.66;5092333;28;20077;-92
2023/09/15 09:01:21;;;;;;;8.57;4.90;;;;;;;16.00;100.00;101650.19;5080285;28;20035;-92
2023/09/15 09:03:47;;;;;;;8.07;4.97;;;;;;;16.04;100.00;101641.28;5079928;28;20023;-91
2023/09/15 09:06:14;;;;;;;9.07;4.63;;;;;;;16.16;100.00;101644.06;5095788;28;20371;-92
2023/09/15 09:08:44;;;;;;;8.10;4.60;;;;;;;16.26;100.00;101651.72;5113812;28;20425;-92
2023/09/15 09:11:13;;;;;;;8.60;4.88;;;;;;;16.37;100.00;101656.41;5096262;28;20073;-92
2023/09/15 09:13:39;;;;;;;9.03;4.63;;;;;;;16.44;100.00;101648.06;5097212;28;20073;-92
2023/09/15 09:16:10;;;;;;;6.88;4.80;;;;;;;16.49;100.00;101643.56;5117147;28;20043;-92
2023/09/15 09:18:35;;;;;;;7.05;4.47;;;;;;;16.62;100.00;101644.41;5099233;28;20016;-92
2023/09/15 09:21:04;;;;;;;9.57;4.53;;;;;;;16.71;99.62;101640.25;5098681;28;20032;-92
2023/09/15 09:23:33;;;;;;;9.32;4.63;;;;;;;16.77;98.76;101641.19;5099166;28;20027;-91
2023/09/15 09:25:59;;;;;;;7.97;4.72;;;;;;;16.89;97.66;101643.97;5098338;28;20027;-91
2023/09/15 09:28:26;;;;;;;6.97;3.85;;;;;;;17.05;97.38;101650.63;5098568;28;20536;-91
2023/09/15 09:30:58;;;;;;;7.00;3.87;;;;;;;17.15;96.10;101642.66;5098683;28;20176;-92
2023/09/15 09:33:23;;;;;;;7.10;4.07;;;;;;;17.30;96.33;101643.00;5098989;28;20045;-92
2023/09/15 09:35:49;;;;;;;8.07;4.50;;;;;;;17.40;95.07;101638.81;5098703;28;20032;-92
2023/09/15 09:38:17;;;;;;;9.30;4.33;;;;;;;17.50;95.21;101639.00;5081469;28;20034;-92
2023/09/15 09:40:43;;;;;;;8.57;4.20;;;;;;;17.64;95.15;101634.06;5098104;28;20027;-92
2023/09/15 09:43:12;;;;;;;8.63;4.00;;;;;;;17.81;93.76;101640.44;5097968;28;20047;-92
2023/09/15 09:45:37;;;;;;;6.45;4.13;;;;;;;17.93;91.84;101632.19;5116289;28;20526;-91
2023/09/15 09:48:04;;;;;;;8.60;3.80;;;;;;;18.02;91.11;101622.47;5080905;28;20153;-92
2023/09/15 09:50:29;;;;;;;6.93;3.60;;;;;;;18.20;90.68;101631.59;5081465;28;20027;-90
2023/09/15 09:52:57;;;;;;;6.00;3.67;;;;;;;18.26;88.63;101625.09;5081348;28;20081;-91
2023/09/15 09:55:27;;;;;;;11.88;3.58;;;;;;;18.39;88.45;101629.44;5116504;28;20020;-91
2023/09/15 09:57:52;;;;;;;4.10;2.90;;;;;;;18.53;86.75;101628.03;5098372;28;20028;-91
2023/09/15 10:00:20;;;;;;;7.45;4.63;;;;;;;18.68;87.21;101624.69;5097927;28;20490;-91
2023/09/15 10:02:45;;;;;;;5.28;3.42;;;;;;;18.84;87.03;101613.91;5098295;28;20040;-91
2023/09/15 10:05:11;;;;;;;6.80;3.30;;;;;;;19.03;86.58;101620.84;5098816;28;20027;-91
2023/09/15 10:07:37;;;;;;;7.25;3.00;;;;;;;19.20;85.03;101618.03;5097785;28;20467;-92
2023/09/15 10:10:07;;;;;;;8.73;3.90;;;;;;;19.41;84.23;101615.56;5115747;28;20032;-91
2023/09/15 10:12:36;;;;;;;4.93;3.25;;;;;;;19.57;82.74;101609.13;5098005;28;20375;-92
2023/09/15 10:15:04;;;;;;;5.43;3.65;;;;;;;19.73;83.10;101601.88;5097850;28;20035;-91
2023/09/15 10:17:32;;;;;;;8.13;3.70;;;;;;;19.96;81.86;101602.69;5115687;28;20020;-91
2023/09/15 10:19:59;;;;;;;9.20;4.70;;;;;;;20.09;79.62;101595.94;5115948;28;20055;-91
2023/09/15 10:22:27;;;;;;;9.60;3.95;;;;;;;20.21;78.24;101599.38;5097382;28;20114;-91
2023/09/15 10:25:00;;;;;;;4.97;3.65;;;;;;;20.34;78.87;101595.31;5096959;28;20532;-91
2023/09/15 10:27:34;;;;;;;4.53;3.80;;;;;;;20.48;78.38;101584.69;5097415;28;20040;-92
2023/09/15 10:30:07;;;;;;;6.57;3.87;;;;;;;20.63;76.93;101583.97;5097837;28;20038;-91
2023/09/15 10:32:39;;;;;;;4.95;3.40;;;;;;;20.81;75.38;101588.25;5097271;28;20521;-91
2023/09/15 10:35:06;;;;;;;6.22;3.97;;;;;;;20.97;74.59;101581.72;5097685;28;20073;-92
2023/09/15 10:37:33;;;;;;;4.93;3.80;;;;;;;21.22;74.64;101584.91;5097196;28;20036;-91
2023/09/15 10:39:59;;;;;;;9.52;4.10;;;;;;;21.38;72.55;101578.34;5097196;28;20077;-91
2023/09/15 10:42:28;;;;;;;5.97;3.53;;;;;;;21.45;71.90;101573.38;5097055;28;20040;-91
2023/09/15 10:44:54;;;;;;;6.07;3.65;;;;;;;21.69;72.51;101573.75;5097155;28;20028;-91
2023/09/15 10:47:21;;;;;;;7.87;3.63;;;;;;;21.97;70.17;101577.13;5097410;28;20031;-91
2023/09/15 10:49:54;;;;;;;6.72;3.33;;;;;;;22.27;70.53;101571.88;5101966;28;20028;-91
2023/09/15 10:52:34;;;;;;;5.65;3.55;;;;;;;22.61;69.84;101558.31;5103142;28;20386;-92
2023/09/15 10:55:00;;;;;;;7.40;3.40;;;;;;;22.71;65.77;101558.28;5099415;28;20028;-91
2023/09/15 10:57:25;;;;;;;7.43;3.70;;;;;;;22.92;63.68;101558.22;5097455;28;20111;-92
2023/09/15 10:59:54;;;;;;;5.77;3.10;;;;;;;23.19;63.99;101555.09;5114817;28;20144;-92
2023/09/15 11:02:20;;;;;;;8.77;3.90;;;;;;;23.55;64.22;101549.41;5115284;28;20491;-91
2023/09/15 11:04:47;;;;;;;5.82;3.53;;;;;;;23.86;62.65;101549.22;5114979;28;20023;-91
2023/09/15 11:07:14;;;;;;;6.32;3.90;;;;;;;24.57;60.93;101544.16;5096740;28;20027;-91
2023/09/15 11:09:45;;;;;;;6.53;3.37;;;;;;;25.34;57.91;101554.38;5114790;28;20494;-91
2023/09/15 11:12:11;;;;;;;7.35;3.67;;;;;;;27.96;50.76;101545.03;5096282;28;20447;-91
2023/09/15 11:14:37;;;;;;;5.05;2.80;;;;;;;31.17;44.00;101543.19;5096797;28;20026;-91
2023/09/15 11:17:03;;;;;;;7.73;2.67;;;;;;;34.24;38.42;101538.19;5114862;28;20031;-91
2023/09/15 11:19:33;;;;;;;10.10;3.22;;;;;;;36.28;32.05;101526.28;5114843;28;20092;-91
2023/09/15 11:22:04;;;;;;;4.57;3.20;;;;;;;38.13;31.21;101531.31;5096838;28;20459;-91
2023/09/15 11:24:32;;;;;;;4.35;3.00;;;;;;;39.55;24.36;101531.13;5114283;28;20156;-91
2023/09/15 11:27:02;;;;;;;3.80;2.63;;;;;;;40.11;24.95;101526.84;5096307;28;20083;-91
2023/09/15 11:29:32;;;;;;;4.88;3.20;;;;;;;41.30;23.24;101515.38;5114896;28;20042;-91
2023/09/15 11:31:58;;;;;;;6.13;3.58;;;;;;;42.34;22.03;101513.97;5114326;28;20043;-91
2023/09/15 11:34:24;;;;;;;4.63;3.30;;;;;;;43.61;20.17;101513.44;5096141;28;20020;-91
2023/09/15 11:36:50;;;;;;;5.33;3.73;;;;;;;44.60;18.70;101509.41;5078289;28;20035;-91
2023/09/15 11:39:16;;;;;;;5.75;3.90;;;;;;;43.72;18.97;101501.84;5096616;28;20039;-92
2023/09/15 11:41:53;;;;;;;6.20;4.37;;;;;;;43.45;19.64;101503.47;5096567;28;20032;-91
2023/09/15 11:44:29;;;;;;;4.73;3.73;;;;;;;44.11;20.65;101498.38;5066107;28;20315;-90
2023/09/15 11:46:57;;;;;;;4.70;4.00;;;;;;;43.70;18.44;101501.47;5106120;28;20093;-91
2023/09/15 11:49:27;;;;;;;5.43;4.00;;;;;;;44.54;17.71;101496.84;5096257;28;20023;-91
2023/09/15 11:51:57;;;;;;;5.63;3.95;;;;;;;44.05;17.33;101487.91;5114149;28;20032;-91
2023/09/15 11:54:35;;;;;;;5.47;3.88;;;;;;;44.85;17.15;101480.34;5095944;28;20059;-95
2023/09/15 11:57:04;;;;;;;5.20;4.00;;;;;;;46.42;16.96;101479.22;5096922;28;20024;-96
2023/09/15 11:59:30;;;;;;;6.28;3.53;;;;;;;46.99;15.74;101482.59;5115397;28;20012;-92
2023/09/15 12:02:06;;;;;;;5.32;4.15;;;;;;;48.11;16.78;101484.88;5096124;28;20375;-91
2023/09/15 12:11:27;;;;;;;4.72;4.32;;;;;;;49.83;13.91;101454.56;5112091;28;20035;-92
2023/09/15 12:17:18;;;;;;;6.35;5.25;;;;;;;51.46;12.47;101447.22;5113663;28;20501;-92
2023/09/15 12:23:15;;;;;;;7.10;6.45;;;;;;;52.00;12.63;101442.44;5114133;28;20042;-93
2023/09/15 12:25:51;;;;;;;6.85;6.28;;;;;;;51.91;11.41;101443.28;5095420;28;20028;-92
2023/09/15 12:28:42;;;;;;;8.35;6.15;;;;;;;50.62;13.17;101441.66;5047761;28;20044;-93
2023/09/15 12:34:32;;;;;;;6.10;5.60;;;;;;;49.58;12.76;101426.78;5051081;28;20520;-93